Amarillo, TX (79119)

5:33 PM CDT on October 22, 2014 (GMT -0500)
Mescalero Park | Change Station
CLOSE
Current Station
Personal Weather Station
Location: Amarillo, TX
Elevation: 3636 ft
Nearby Weather Stations

Elev 3636 ft 35.05 °N, 101.88 °W | Updated 3 minutes ago

Partly Cloudy
Partly Cloudy
70.1 °F
Feels Like 75 °F
N
7.1
Wind Variable Wind from North
Gusts 9.4 mph

Today
High -- | Low -- °F
--% Chance of Precip.
Yesterday
High -- | Low -- °F
Precip. -- in
7:59 AM 7:04 PM
Waning Crescent, 1% visible
Pressure 29.96 in
Visibility 7.0 miles
Clouds Few 1400 ft
Mostly Cloudy 8500 ft
Heat Index 75 °F
Dew Point 60 °F
Humidity 66%
Rainfall 0.74 in
Snow Depth Not available.
UV 1 out of 12
Pollen 5.10 out of 12
Air Quality Not available.
Flu Activity Sporadic
METAR KAMA 222153Z 15015KT 7SM -RA FEW014 BKN085 18/16 A3006 RMK AO2 RAB48 SLP144 P0000 T01830161

More Conditions Fewer Conditions

Pressure 29.96 in
Visibility 7.0 miles
Clouds Few 1400 ft
Mostly Cloudy 8500 ft
Heat Index 75 °F
Dew Point 60 °F
Humidity 66%
Rainfall 0.74 in
Snow Depth Not available.
UV 1 out of 12
Pollen 5.10 out of 12
Air Quality Not available.
Flu Activity Sporadic
METAR KAMA 222153Z 15015KT 7SM -RA FEW014 BKN085 18/16 A3006 RMK AO2 RAB48 SLP144 P0000 T01830161

More Conditions Fewer Conditions

10-Day Weather Forecast

Almanac

Astronomy

Oct. 22, 2014 Rise Set
Actual Time 7:59 AM CDT 7:04 PM CDT
Civil Twilight 7:33 AM CDT 7:29 PM CDT
Nautical Twilight 7:04 AM CDT 7:59 PM CDT
Astronomical Twilight 6:34 AM CDT 8:28 PM CDT
Moon 6:45 AM CDT 6:30 PM CDT
Length of Visible Light 11h 55m
Length of Day
11h 04m
Tomorrow will be 2m 3s shorter.
Waning Crescent, 1% of the Moon is Illuminated
Today
Waning Crescent
Oct 23
New
Oct 30
First Quarter
Nov 6
Full
Nov 14
Last Quarter

Today's Extremes

State Highs State Lows

Community

WunderPhotos

Upload Photos

1,764,065 photos uploaded!

WunderBlogs® & News

Nearby

Snow Depth

Station Depth Elevation
No new snow has been reported.

Earthquake Activity

City Distance Mag. Time & Date
No recent earthquake activity has been reported nearby.
Minimum magnitude displayed is 2.5.

Coastal Water Temperatures

Place Temperature
No Stations Reporting

Nearby Weather Stations